Sonic Adventure (DX): Overall Rankings

Records: Times | Rings | Scores | Races | Bosses | Freestyle
Leaders: Times | Rings | Scores | Races | Bosses | Freestyle | Overall
Rank Player Percent Points Order Asc Date
1 Sonicspeedruner 98.4% 247 03-01-15
2 Gamepro011 97.5% 389 03-01-15
3 DarkPolarNight 96.4% 566 03-01-15
4 Jawzun 93.9% 974 03-01-15
5 Dashjump 91.8% 1308 03-01-15
6 DarkspinesSonic 90.9% 1456 03-01-15
7 Avento128bits 90.4% 1539 03-01-15
8 ike6252 90.3% 1558 03-01-15
9 F-Man 86.1% 2231 03-01-15
10 HyperSonic7701 85.2% 2374 03-01-15
11 Coolfansonic 84.2% 2543 03-01-15
12 yoshifan 83.8% 2612 03-01-15
13 frankoredstrato 83.2% 2695 03-01-15
14 TheRealShadnic 82.3% 2852 03-01-15
15 francisco 82.2% 2861 03-01-15
16 Marth 81.8% 2929 03-01-15
17 InferSaime 80.6% 3124 03-01-15
18 PfoSonic 80.2% 3180 03-01-15
19 Paragod 79.7% 3272 03-01-15
20 THC98 78.4% 3475 03-01-15
21 Stefan 76.4% 3792 03-01-15
22 RPGnutter 74.2% 4149 03-01-15
23 bertin 74.1% 4170 03-01-15
24 sonicam 71.8% 4533 03-01-15
25 Combo 65.9% 5496 03-01-15
26 SkyLights 64.7% 5682 03-01-15
27 TailsDash1999 63.7% 5840 03-01-15
28 Diamond 63.0% 5952 03-01-15
29 GerbilSoft 60.6% 6347 03-01-15
30 OmegaDJ 60.5% 6356 03-01-15
31 Auriman1 60.5% 6364 03-01-15
32 magnum12 59.5% 6521 03-01-15
33 Dawid8404 59.4% 6542 03-01-15
34 Thorn 57.5% 6848 03-01-15
35 P1 Pause 57.2% 6895 03-01-15
36 mike89 56.0% 7096 03-01-15
37 Groudon199 54.1% 7393 03-01-15
38 chainchumper 54.1% 7394 03-01-15
39 Dave Cramer 54.0% 7409 03-01-15
40 Parax 53.3% 7517 03-01-15
41 Shadow Jacky 53.0% 7577 03-01-15
42 Psymar 47.8% 8416 03-01-15
43 drminus 47.5% 8459 03-01-15
44 Chao_Fan 46.0% 8704 03-01-15
45 Arch 45.8% 8741 03-01-15
46 mauserman 45.5% 8775 03-01-15
47 Quartz 44.8% 8888 03-01-15
48 teamblackarms 43.9% 9046 03-01-15
49 Psyknux 43.7% 9080 03-01-15
50 James_Bertolli 43.1% 9172 03-01-15
51 NintenDan 42.5% 9267 03-01-15
52 Fr3nZy 42.0% 9354 03-01-15
53 Webber3000 41.9% 9360 03-01-15
54 Ring Rush 41.8% 9377 03-01-15
55 Turbos 41.8% 9381 03-01-15
56 Cream147 41.6% 9413 03-01-15
57 videogamemaster777 41.5% 9430 03-01-15
58 Siavash Tazari 41.2% 9478 03-01-15
59 buddychaos0415 40.8% 9546 03-01-15
60 SadisticMystic 40.1% 9660 03-01-15
61 eggFL 39.2% 9795 03-01-15
62 Redd 38.7% 9876 03-01-15
63 SB737 37.7% 10047 03-01-15
64 supersonicfan 36.4% 10248 03-01-15
65 FuzZerd 35.4% 10410 03-01-15
66 elecmouse101 34.7% 10527 03-01-15
67 supersonic465 34.6% 10549 03-01-15
68 Austinf 33.6% 10703 03-01-15
69 metanightmare22 33.0% 10798 03-01-15
70 Aitamen 33.0% 10801 03-01-15
71 dabestgamer 32.9% 10821 03-01-15
72 MiStEr_ShAoLiN 32.8% 10839 03-01-15
73 Cyan Ryan 32.7% 10840 03-01-15
74 itsPersonnal 31.9% 10984 03-01-15
75 Cybrax 30.9% 11134 03-01-15
76 Andrea Ritsu 30.7% 11162 03-01-15
77 danieldude 30.7% 11178 03-01-15
78 SilvertheAlmighty 30.6% 11182 03-01-15
79 VMU Player Banned 28.9% 11466 03-01-15
80 Omega Rafael Santos 28.3% 11557 03-01-15
81 Staf 28.3% 11563 03-01-15
82 The T 28.1% 11597 03-01-15
83 EngiNerd 27.7% 11646 03-01-15
84 lordmetalsonic 27.0% 11769 03-01-15
85 Hipertails12 26.8% 11807 03-01-15
86 welldooder64 26.4% 11868 03-01-15
87 Sondow 26.3% 11879 03-01-15
88 GreatStar 26.3% 11882 03-01-15
89 The Great Lord Mick 26.0% 11922 03-01-15
90 Mastakirby 26.0% 11931 03-01-15
91 LinksDarkArrows 25.9% 11950 03-01-15
92 Nimrod 25.5% 12002 03-01-15
93 Skylace 24.9% 12107 03-01-15
94 Rolken 23.5% 12337 03-01-15
95 Xia 22.0% 12580 03-01-15
96 Kogen Player Banned 21.8% 12604 03-01-15
97 Spinballwizard 21.7% 12622 03-01-15
98 Don 21.4% 12676 03-01-15
99 Miles9999 21.3% 12686 03-01-15
100 Cutiefox 21.3% 12688 03-01-15
101 f0rever_zer0 21.2% 12703 03-01-15
102 andres430 20.5% 12819 03-01-15
103 Cruizer 20.4% 12828 03-01-15
104 iSonicKid2K 20.2% 12870 03-01-15
105 SADXTryHard 19.8% 12931 03-01-15
106 GarnetPrincess 19.5% 12980 03-01-15
107 knuckles_sonic8 18.9% 13077 03-01-15
108 Team_Yoshi 18.4% 13162 03-01-15
109 KinkyCadence 18.0% 13219 03-01-15
110 The Knuckles Chao 17.9% 13232 03-01-15
111 FoxBoy 17.8% 13258 03-01-15
112 Termon 17.7% 13268 03-01-15
113 SonicWinDX 17.0% 13384 03-01-15
114 Sonic Singularity 15.6% 13607 03-01-15
115 Pokemonmaster888 15.6% 13608 03-01-15
116 BigAL49 14.6% 13773 03-01-15
117 SilverSonic 14.4% 13807 03-01-15
118 MPit08 14.3% 13817 03-01-15
119 Mo Player Banned 14.1% 13848 03-01-15
120 Cod4Scopes 13.5% 13952 03-01-15
121 HyperSonic64 13.4% 13967 03-01-15
122 booo95 13.3% 13984 03-01-15
123 Chawkk 13.1% 14002 03-01-15
124 SuperSonic101 12.9% 14034 03-01-15
125 paulie9990 12.9% 14035 03-01-15
126 Hunters13 12.8% 14052 03-01-15
127 Maxinfamily 12.7% 14068 03-01-15
128 Flying Fox 12.5% 14099 03-01-15
129 PsyBorg 12.5% 14105 03-01-15
130 Kanimayo_Jp 12.4% 14119 03-01-15
131 BrokenArthritis 12.3% 14138 03-01-15
132 LilZero 12.2% 14151 03-01-15
133 Therio 11.7% 14232 03-01-15
134 sonicspeed 11.7% 14237 03-01-15
135 douglas 11.5% 14262 03-01-15
136 Matt_TY 11.2% 14308 03-01-15
137 Cooljay 10.6% 14412 03-01-15
138 joecoolgames 10.5% 14424 03-01-15
139 LittleBigness 10.5% 14425 03-01-15
140 SeaWolf 10.5% 14431 03-01-15
141 TFEC Headshot 9.9% 14518 03-01-15
142 welshmoose05 9.9% 14528 03-01-15
143 crazy1993 9.6% 14569 03-01-15
144 Mcshuggets 9.5% 14584 03-01-15
145 videogamer1014 9.3% 14620 03-01-15
146 imazor017 9.1% 14653 03-01-15
147 nuckrieg 9.1% 14658 03-01-15
148 SonicAD 9.1% 14662 03-01-15
149 niscool 9.0% 14666 03-01-15
150 SirTobbii 9.0% 14677 03-01-15
151 superjupi 8.8% 14705 03-01-15
152 Shadowthegreat 8.8% 14708 03-01-15
153 SaviourDC 8.5% 14755 03-01-15
154 iarebored 8.4% 14761 03-01-15
155 sonamyfan666 8.4% 14769 03-01-15
156 Werey 8.3% 14790 03-01-15
157 SonicKnuckles 8.2% 14793 03-01-15
158 adf 7.9% 14842 03-01-15
159 ArcticDragon 7.9% 14849 03-01-15
160 Megaman EXE565 7.8% 14868 03-01-15
161 Game_Complete 7.5% 14920 03-01-15
162 Platformer 7.4% 14924 03-01-15
163 FocusSight64 7.3% 14942 03-01-15
164 timpkmn89 7.2% 14955 03-01-15
165 wheatrich 7.2% 14956 03-01-15
166 Swift Hobo 7.2% 14965 03-01-15
167 Rickyman48 7.0% 14989 03-01-15
168 KitsuneYamaro 6.8% 15026 03-01-15
169 Triseena 6.7% 15047 03-01-15
170 CyberShadow 6.5% 15072 03-01-15
171 dShadow 6.4% 15089 03-01-15
171 slade23 6.4% 15089 03-01-15
173 Starlight Sable 6.3% 15098 03-01-15
174 IsisDazs 6.2% 15121 03-01-15
175 BlankTH 6.1% 15144 03-01-15
176 Monkeh 5.8% 15188 03-01-15
177 Richied 5.7% 15196 03-01-15
178 DaDude 5.6% 15214 03-01-15
179 Zip 5.5% 15236 03-01-15
180 sonicd5 5.5% 15238 03-01-15
181 tal39h 5.2% 15291 03-01-15
181 Kirbymon30 5.2% 15291 03-01-15
183 soniccoloursunleashed 4.8% 15342 03-01-15
184 Drflash55 4.8% 15344 03-01-15
185 neaolas 4.7% 15371 03-01-15
186 Bass 4.6% 15372 03-01-15
187 Yish 4.6% 15381 03-01-15
188 superiorsonic 4.6% 15388 03-01-15
189 UninspiredUsername 4.5% 15392 03-01-15
190 Sonicsuperstar1 4.5% 15395 03-01-15
191 zapp 4.5% 15397 03-01-15
192 gamefreak1292 4.4% 15413 03-01-15
193 SonicU260 4.1% 15459 03-01-15
194 Chaos_Overlord 4.1% 15461 03-01-15
195 TakaRikka 4.0% 15481 03-01-15
196 Valfore 3.9% 15486 03-01-15
197 ShinigamiMachine 3.8% 15516 03-01-15
198 Regano1000 3.7% 15525 03-01-15
199 MK 3.6% 15540 03-01-15
200 Ace747 3.5% 15551 03-01-15
201 Illidan 3.2% 15598 03-01-15
202 Venick409 3.1% 15623 03-01-15
203 Brian_pso 3.1% 15628 03-01-15
204 Mariobutch 3.1% 15629 03-01-15
205 Sithwarrior26 3.0% 15632 03-01-15
206 TheChaosEmeraIds 2.9% 15651 03-01-15
207 ingx24 2.9% 15652 03-01-15
208 SkyBon 2.9% 15661 03-01-15
209 Nickson98 2.8% 15663 03-01-15
210 Fozer 2.8% 15675 03-01-15
211 sonic29887 2.7% 15681 03-01-15
211 FSSRandomvids 2.7% 15681 03-01-15
213 Colomb_30 2.7% 15684 03-01-15
214 TheUltraBlur 2.6% 15701 03-01-15
215 1stKirbyever 2.5% 15713 03-01-15
216 Th4tN1nj4Turtl3 2.3% 15744 03-01-15
217 Cort_pso 2.3% 15750 03-01-15
218 Doom-9 2.3% 15755 03-01-15
219 ieatatsonic 2.3% 15759 03-01-15
220 Mariosonic15 2.2% 15762 03-01-15
221 SuperSonic71087 2.2% 15771 03-01-15
222 MStitomix 2.1% 15780 03-01-15
223 HermitHelmet 2.1% 15784 03-01-15
224 Artie 2.0% 15796 03-01-15
225 Got4n 2.0% 15798 03-01-15
226 Jose_15 1.9% 15810 03-01-15
227 Questionguy555 1.9% 15811 03-01-15
228 a_moustache 1.9% 15817 03-01-15
229 djmat 1.9% 15822 03-01-15
230 sonicandamy 1.7% 15842 03-01-15
231 LancexExWx 1.7% 15846 03-01-15
232 son1cgu1tar 1.7% 15850 03-01-15
233 Heroes_Hater 1.7% 15851 03-01-15
234 Paixii 1.6% 15859 03-01-15
235 BallzeH 1.5% 15873 03-01-15
236 Mankster101 1.5% 15878 03-01-15
237 BecauseWarAnvil 1.5% 15881 03-01-15
238 Jamixesa 1.5% 15882 03-01-15
239 Crydio 1.4% 15891 03-01-15
240 Shanekilz 1.4% 15892 03-01-15
240 SpiritDragon1995 1.4% 15892 03-01-15
242 ReuelBrony 1.4% 15902 03-01-15
243 stanski 1.3% 15908 03-01-15
244 MarewBFN 1.3% 15909 03-01-15
245 Sonique Hedgehog 1.3% 15914 03-01-15
246 p0ker 1.2% 15924 03-01-15
247 Blue Infamy 1.2% 15925 03-01-15
248 ErrortheCucco 1.2% 15934 03-01-15
249 Arthas 1.2% 15935 03-01-15
250 Rikum22 1.1% 15937 03-01-15
251 sonic1001 1.1% 15945 03-01-15
252 WingedInsignia 1.1% 15947 03-01-15
253 syco1098 1.1% 15952 03-01-15
254 AJSIV 1.0% 15955 03-01-15
254 Sonic the Hedgehod16 1.0% 15955 03-01-15
256 Calfd 1.0% 15959 03-01-15
257 BlackArmsShadow 0.9% 15972 03-01-15
258 themachoman202 0.9% 15976 03-01-15
259 Ben1502 0.9% 15982 03-01-15
260 MastaToken 0.9% 15983 03-01-15
260 shadowblast63 Player Banned 0.9% 15983 03-01-15
262 Greham Adelphis 0.9% 15984 03-01-15
262 Fivavoa 0.9% 15984 03-01-15
264 Mr. Jones 0.8% 15986 03-01-15
265 darkstarblaze 0.8% 15987 03-01-15
265 ptorflaxendrosis 0.8% 15987 03-01-15
267 arcfx1985 0.8% 15988 03-01-15
268 Gvozdevik 0.8% 15991 03-01-15
268 Knuckles 0.8% 15991 03-01-15
270 FlandreScarlet9999vr 0.8% 15993 03-01-15
271 KaM Mark MaK 0.7% 16001 03-01-15
272 BeeAwwb 0.7% 16005 03-01-15
273 ShadouZaHejjihoggu 0.7% 16008 03-01-15
274 Sonic62 0.7% 16014 03-01-15
275 darkersupershadic 0.7% 16017 03-01-15
276 Sogeking 0.6% 16018 03-01-15
277 dragondragon18 0.6% 16021 03-01-15
277 Shadygamerfreak 0.6% 16021 03-01-15
279 SonicK100 0.6% 16022 03-01-15
279 Sarger001 0.6% 16022 03-01-15
281 Grady219 0.6% 16023 03-01-15
282 Jawaah 0.6% 16027 03-01-15
283 Antek 0.6% 16031 03-01-15
284 SilverK 0.6% 16032 03-01-15
285 Klaus 0.6% 16033 03-01-15
286 BioShadow 0.5% 16038 03-01-15
287 SpinDashMaster 0.5% 16039 03-01-15
288 Videogamer123 0.5% 16043 03-01-15
289 oTaiIilLsS 0.4% 16057 03-01-15
289 Egor305 0.4% 16057 03-01-15
291 isaihtb11 0.4% 16059 03-01-15
292 Mad Andy 0.4% 16060 03-01-15
292 OhNoes! 0.4% 16060 03-01-15
294 zaktu40 0.4% 16061 03-01-15
295 S-MS32X-S 0.4% 16063 03-01-15
296 gaara1234 0.4% 16064 03-01-15
297 gamed00d 0.4% 16065 03-01-15
298 Mister_Slick 0.3% 16075 03-01-15
299 Sonic06Fan 0.3% 16077 03-01-15
300 Rush Hero 0.3% 16078 03-01-15
301 SonicMega167 0.3% 16081 03-01-15
302 Iwannabelink 0.2% 16082 03-01-15
303 sonknuck23 0.2% 16087 03-01-15
304 gamer1245 0.2% 16092 03-01-15
305 DanielTheFalcon 0.2% 16093 03-01-15
306 Burningskull123 0.1% 16100 03-01-15
307 Sonicontherun 0.1% 16110 03-01-15
308 Lil_Dude 0.0% 16114 03-01-15
309 antiwwe 0.0% 16116 03-01-15
310 Genuine Hedgehog 0.0% 16120 03-01-15
310 Cbwade15 0.0% 16120 03-01-15
312 Tyrouble 0.0% 16123 03-01-15
313 MegabombBlade 0.0% 16130 03-01-15
313 Tran Sonic Fan Player Banned 0.0% 16130 03-01-15
313 Over 0.0% 16130 03-01-15
313 sdj6707 Player Banned 0.0% 16130 03-01-15
313 neji_hyuuga 0.0% 16130 03-01-15

This page is using the New Data Table System. [FUTURE]

Game ID: 3 | Category ID: 10
Hits: 62,533 | Hits This Month: 32 | DB Calls: 21 | Mem Usage: 5.45 MB | Time: 0.12s | Printable

The Sonic Center v3.9
Copyright 2003-2011 by The Sonic Center Team.